Time;durP1;ratioP1;P1;durP2;ratioP2;P2;SDS_P1;SDS_P2;PMS_P1;PMS_P2;Temp;Humidity;BMP_temperature;BMP_pressure;BME280_temperature;BME280_humidity;BME280_pressure;Samples;Min_cycle;Max_cycle;Signal;HPM_P1;HPM_P2
2022/08/18 00:02:24;;;;;;;47.87;42.77;;;;;;;;;;4980248;28;20412;-93
2022/08/18 00:04:50;;;;;;;47.70;42.53;;;;;;;;;;4982421;28;20508;-94
2022/08/18 00:07:18;;;;;;;50.00;44.97;;;;;;;;;;4990306;28;20440;-94
2022/08/18 00:09:50;;;;;;;46.67;42.00;;;;;;;;;;4979567;28;20424;-95
2022/08/18 00:12:18;;;;;;;45.53;40.77;;;;;;;;;;4992943;28;20436;-93
2022/08/18 00:14:45;;;;;;;50.87;43.83;;;;;;;;;;4989155;28;20426;-93
2022/08/18 00:17:11;;;;;;;49.00;43.40;;;;;;;;;;5004281;28;20455;-93
2022/08/18 00:19:37;;;;;;;49.90;43.97;;;;;;;;;;4994915;28;20432;-93
2022/08/18 00:22:03;;;;;;;51.87;45.43;;;;;;;;;;4986748;28;20500;-94
2022/08/18 00:24:30;;;;;;;51.33;45.60;;;;;;;;;;4993309;28;20445;-95
2022/08/18 00:26:56;;;;;;;49.70;44.27;;;;;;;;;;4988759;28;20515;-94
2022/08/18 00:29:22;;;;;;;51.83;45.60;;;;;;;;;;4988237;28;20456;-95
2022/08/18 00:31:48;;;;;;;50.90;45.40;;;;;;;;;;4991489;28;20440;-95
2022/08/18 00:34:14;;;;;;;52.97;45.17;;;;;;;;;;4992231;28;20480;-94
2022/08/18 00:36:40;;;;;;;46.83;41.87;;;;;;;;;;4990586;28;20446;-94
2022/08/18 00:39:07;;;;;;;49.07;43.80;;;;;;;;;;4991582;28;20433;-94
2022/08/18 00:41:33;;;;;;;50.67;45.37;;;;;;;;;;4992404;28;20472;-93
2022/08/18 00:44:00;;;;;;;49.70;42.97;;;;;;;;;;4988106;28;20449;-94
2022/08/18 00:46:32;;;;;;;50.83;43.53;;;;;;;;;;4992585;28;20452;-94
2022/08/18 00:48:58;;;;;;;53.43;44.97;;;;;;;;;;4990160;28;20432;-93
2022/08/18 00:51:29;;;;;;;49.00;43.70;;;;;;;;;;4987924;28;20428;-93
2022/08/18 00:54:05;;;;;;;52.10;45.33;;;;;;;;;;4966662;28;20464;-94
2022/08/18 00:56:33;;;;;;;49.23;43.73;;;;;;;;;;5001833;28;20466;-94
2022/08/18 00:59:06;;;;;;;49.23;43.93;;;;;;;;;;4986087;28;20463;-93
2022/08/18 01:01:33;;;;;;;51.03;44.10;;;;;;;;;;4980265;28;20666;-93
2022/08/18 01:04:02;;;;;;;53.40;47.00;;;;;;;;;;4985865;28;20483;-94
2022/08/18 01:06:28;;;;;;;55.10;45.70;;;;;;;;;;4978159;28;20569;-94
2022/08/18 01:08:54;;;;;;;57.50;48.53;;;;;;;;;;4984095;28;20441;-94
2022/08/18 01:11:20;;;;;;;51.70;45.40;;;;;;;;;;4993733;28;20425;-93
2022/08/18 01:13:46;;;;;;;56.13;44.33;;;;;;;;;;4986274;28;20431;-94
2022/08/18 01:21:52;;;;;;;54.73;45.17;;;;;;;;;;4999166;28;20498;-92
2022/08/18 01:24:19;;;;;;;51.37;45.37;;;;;;;;;;4970262;28;20433;-94
2022/08/18 01:26:49;;;;;;;47.87;42.23;;;;;;;;;;4985148;28;20444;-94
2022/08/18 01:29:16;;;;;;;46.47;41.47;;;;;;;;;;4984289;28;20480;-93
2022/08/18 01:31:46;;;;;;;44.90;36.73;;;;;;;;;;4992494;28;20511;-94
2022/08/18 01:34:12;;;;;;;43.40;38.70;;;;;;;;;;4980984;28;20444;-93
2022/08/18 01:36:40;;;;;;;46.80;41.80;;;;;;;;;;4984160;28;20416;-93
2022/08/18 01:39:07;;;;;;;51.10;43.60;;;;;;;;;;4981054;28;20500;-94
2022/08/18 01:41:33;;;;;;;49.97;41.80;;;;;;;;;;4990140;28;20483;-92
2022/08/18 01:43:59;;;;;;;47.50;42.10;;;;;;;;;;4977633;28;20444;-93
2022/08/18 01:52:14;;;;;;;56.80;47.20;;;;;;;;;;5030372;28;20512;-94
2022/08/18 01:54:41;;;;;;;64.20;50.30;;;;;;;;;;5008310;28;20435;-95
2022/08/18 01:57:12;;;;;;;57.90;48.77;;;;;;;;;;5005016;28;20434;-94
2022/08/18 01:59:38;;;;;;;57.93;45.47;;;;;;;;;;5018206;28;20407;-94
2022/08/18 02:02:04;;;;;;;55.77;44.83;;;;;;;;;;5015926;28;20478;-94
2022/08/18 02:04:35;;;;;;;53.43;46.80;;;;;;;;;;5012010;28;20406;-93
2022/08/18 02:07:01;;;;;;;50.13;43.70;;;;;;;;;;5007316;28;20459;-93
2022/08/18 02:09:28;;;;;;;48.70;41.87;;;;;;;;;;5006640;28;20418;-94
2022/08/18 02:11:54;;;;;;;52.50;43.67;;;;;;;;;;5006730;28;20416;-95
2022/08/18 02:14:20;;;;;;;53.60;44.17;;;;;;;;;;5012220;28;20411;-94
2022/08/18 02:16:46;;;;;;;51.10;43.37;;;;;;;;;;5015969;28;20944;-94
2022/08/18 02:19:12;;;;;;;52.50;46.30;;;;;;;;;;5017165;28;20473;-94
2022/08/18 02:21:38;;;;;;;55.00;47.80;;;;;;;;;;5015398;28;20477;-94
2022/08/18 02:24:04;;;;;;;61.60;50.60;;;;;;;;;;5018228;28;20516;-94
2022/08/18 02:26:30;;;;;;;62.60;49.00;;;;;;;;;;5014517;28;20435;-91
2022/08/18 02:28:56;;;;;;;55.60;49.10;;;;;;;;;;5016488;28;20422;-92
2022/08/18 02:31:23;;;;;;;60.40;47.40;;;;;;;;;;5014171;28;20407;-92
2022/08/18 02:33:50;;;;;;;60.40;48.57;;;;;;;;;;5014513;28;20410;-93
2022/08/18 02:36:16;;;;;;;60.90;49.83;;;;;;;;;;5014199;28;20985;-93
2022/08/18 02:38:42;;;;;;;67.73;52.80;;;;;;;;;;5032736;28;20658;-93
2022/08/18 02:41:10;;;;;;;64.67;51.87;;;;;;;;;;5004733;28;20761;-93
2022/08/18 02:43:36;;;;;;;70.33;53.23;;;;;;;;;;5009559;28;20379;-93
2022/08/18 02:46:03;;;;;;;73.13;55.00;;;;;;;;;;5025695;28;20425;-93
2022/08/18 02:48:38;;;;;;;66.70;54.00;;;;;;;;;;5013928;28;21337;-93
2022/08/18 02:51:09;;;;;;;68.47;49.87;;;;;;;;;;4994199;28;20428;-93
2022/08/18 02:53:36;;;;;;;71.70;52.80;;;;;;;;;;4988005;28;20497;-94
2022/08/18 02:56:26;;;;;;;77.33;56.70;;;;;;;;;;4993266;28;20423;-90
2022/08/18 02:58:56;;;;;;;81.47;56.13;;;;;;;;;;4996442;28;20404;-93
2022/08/18 03:01:26;;;;;;;87.73;60.00;;;;;;;;;;4976664;28;20486;-91
2022/08/18 03:03:52;;;;;;;81.77;59.03;;;;;;;;;;4977810;28;20787;-89
2022/08/18 03:06:19;;;;;;;80.20;58.37;;;;;;;;;;5011657;28;20450;-92
2022/08/18 03:08:47;;;;;;;88.00;57.07;;;;;;;;;;4996760;28;20434;-91
2022/08/18 03:11:15;;;;;;;73.60;55.40;;;;;;;;;;4978004;28;20443;-93
2022/08/18 03:13:41;;;;;;;77.33;55.30;;;;;;;;;;4999926;28;20413;-92
2022/08/18 03:16:07;;;;;;;68.97;51.17;;;;;;;;;;4999300;28;20431;-92
2022/08/18 03:18:33;;;;;;;81.50;54.93;;;;;;;;;;5002050;28;20424;-91
2022/08/18 03:21:04;;;;;;;65.20;51.40;;;;;;;;;;4980521;28;20475;-93
2022/08/18 03:23:30;;;;;;;66.37;50.43;;;;;;;;;;4981371;28;20413;-93
2022/08/18 03:25:56;;;;;;;70.70;51.23;;;;;;;;;;4994901;28;20446;-91
2022/08/18 03:28:22;;;;;;;70.30;51.30;;;;;;;;;;4993583;28;20443;-92
2022/08/18 03:30:48;;;;;;;75.97;51.17;;;;;;;;;;5000806;28;21002;-91
2022/08/18 03:33:14;;;;;;;73.20;53.20;;;;;;;;;;4996333;28;20432;-92
2022/08/18 03:35:40;;;;;;;73.30;51.97;;;;;;;;;;4995142;28;20473;-93
2022/08/18 03:38:06;;;;;;;72.90;53.10;;;;;;;;;;4975873;28;20431;-93
2022/08/18 03:40:33;;;;;;;71.93;52.13;;;;;;;;;;4993452;28;20477;-92
2022/08/18 03:43:05;;;;;;;88.77;58.73;;;;;;;;;;4974492;28;20496;-90
2022/08/18 03:45:31;;;;;;;87.83;56.17;;;;;;;;;;4974168;28;20437;-91
2022/08/18 03:47:59;;;;;;;90.70;58.93;;;;;;;;;;4977740;28;20436;-91
2022/08/18 03:50:25;;;;;;;79.33;57.30;;;;;;;;;;4995168;28;20804;-92
2022/08/18 03:52:51;;;;;;;81.73;55.57;;;;;;;;;;5010116;28;20474;-93
2022/08/18 03:55:17;;;;;;;92.47;56.00;;;;;;;;;;4999725;28;20514;-90
2022/08/18 03:57:44;;;;;;;91.57;57.80;;;;;;;;;;4970254;28;20501;-91
2022/08/18 04:00:10;;;;;;;100.93;60.07;;;;;;;;;;4981135;28;20481;-90
2022/08/18 04:02:36;;;;;;;98.37;59.87;;;;;;;;;;4992622;28;20439;-92
2022/08/18 04:05:03;;;;;;;100.90;58.00;;;;;;;;;;4995184;28;20434;-92
2022/08/18 04:07:29;;;;;;;96.87;58.17;;;;;;;;;;4982038;28;20515;-92
2022/08/18 04:09:58;;;;;;;101.13;58.80;;;;;;;;;;4991942;28;20436;-91
2022/08/18 04:12:24;;;;;;;102.50;60.87;;;;;;;;;;4983831;28;21001;-91
2022/08/18 04:14:50;;;;;;;112.03;61.87;;;;;;;;;;4980307;28;20527;-92
2022/08/18 04:17:22;;;;;;;96.90;58.67;;;;;;;;;;4991418;28;20542;-94
2022/08/18 04:19:48;;;;;;;104.90;58.40;;;;;;;;;;4977056;28;20427;-91
2022/08/18 04:22:15;;;;;;;109.87;59.37;;;;;;;;;;4983793;28;20495;-91
2022/08/18 04:24:42;;;;;;;114.00;64.37;;;;;;;;;;4993202;28;20436;-91
2022/08/18 04:27:08;;;;;;;107.90;61.30;;;;;;;;;;5001306;28;21048;-92
2022/08/18 04:29:34;;;;;;;110.83;60.83;;;;;;;;;;4976753;28;20436;-93
2022/08/18 04:32:03;;;;;;;119.20;60.10;;;;;;;;;;4980128;28;20451;-93
2022/08/18 04:34:29;;;;;;;106.73;60.70;;;;;;;;;;5006033;28;20455;-93
2022/08/18 04:36:55;;;;;;;112.80;62.83;;;;;;;;;;4985753;28;20488;-93
2022/08/18 04:39:22;;;;;;;122.43;64.40;;;;;;;;;;5001675;28;20408;-94
2022/08/18 04:41:48;;;;;;;118.30;63.47;;;;;;;;;;4980043;28;20494;-92
2022/08/18 04:44:16;;;;;;;124.77;64.97;;;;;;;;;;4988609;28;20411;-95
2022/08/18 04:46:45;;;;;;;121.07;64.80;;;;;;;;;;4984802;28;20446;-93
2022/08/18 04:49:11;;;;;;;119.00;62.97;;;;;;;;;;4989795;28;20458;-94
2022/08/18 04:51:41;;;;;;;127.77;62.03;;;;;;;;;;4988838;28;20468;-93
2022/08/18 04:54:07;;;;;;;117.53;61.87;;;;;;;;;;5012461;28;20387;-94
2022/08/18 04:56:34;;;;;;;121.13;61.27;;;;;;;;;;4979390;28;20427;-92
2022/08/18 04:59:08;;;;;;;96.27;57.53;;;;;;;;;;4998198;28;20434;-93
2022/08/18 05:01:36;;;;;;;104.20;59.83;;;;;;;;;;5013818;28;20470;-93
2022/08/18 05:04:03;;;;;;;95.10;57.10;;;;;;;;;;4983144;28;20408;-93
2022/08/18 05:06:29;;;;;;;99.57;57.47;;;;;;;;;;5001320;28;20485;-94
2022/08/18 05:08:56;;;;;;;108.30;58.63;;;;;;;;;;5001580;28;20426;-94
2022/08/18 05:11:23;;;;;;;97.07;54.70;;;;;;;;;;5007200;28;20424;-93
2022/08/18 05:13:51;;;;;;;86.77;55.00;;;;;;;;;;5004430;28;20481;-94
2022/08/18 05:16:18;;;;;;;91.13;54.23;;;;;;;;;;5002218;28;20508;-89
2022/08/18 05:18:44;;;;;;;74.70;48.20;;;;;;;;;;4984594;28;20443;-90
2022/08/18 05:21:14;;;;;;;87.63;52.60;;;;;;;;;;5003806;28;20459;-93
2022/08/18 05:23:41;;;;;;;83.53;52.07;;;;;;;;;;5001900;28;20480;-91
2022/08/18 05:26:07;;;;;;;83.70;53.40;;;;;;;;;;5027958;28;20447;-92
2022/08/18 05:28:36;;;;;;;86.77;52.73;;;;;;;;;;5009121;28;20510;-93
2022/08/18 05:31:15;;;;;;;85.67;51.30;;;;;;;;;;4987924;28;20528;-93
2022/08/18 05:33:42;;;;;;;90.07;53.03;;;;;;;;;;5005225;28;20447;-93
2022/08/18 05:36:26;;;;;;;84.37;51.53;;;;;;;;;;4997420;28;20578;-90
2022/08/18 05:39:06;;;;;;;93.87;51.70;;;;;;;;;;4981783;28;20435;-93
2022/08/18 05:41:40;;;;;;;83.53;49.10;;;;;;;;;;5018038;28;20482;-89
2022/08/18 05:44:14;;;;;;;90.17;50.80;;;;;;;;;;5009835;28;20455;-92
2022/08/18 05:46:51;;;;;;;86.73;49.20;;;;;;;;;;5021237;28;20427;-93
2022/08/18 05:49:18;;;;;;;80.73;48.47;;;;;;;;;;5003934;28;20541;-93
2022/08/18 05:51:49;;;;;;;100.33;55.17;;;;;;;;;;4994457;28;20479;-91
2022/08/18 05:57:12;;;;;;;77.40;48.43;;;;;;;;;;4998766;28;20447;-94
2022/08/18 05:59:40;;;;;;;82.57;47.40;;;;;;;;;;5003814;28;20870;-89
2022/08/18 06:02:21;;;;;;;74.47;48.17;;;;;;;;;;5004708;28;20479;-89
2022/08/18 06:04:50;;;;;;;78.93;47.03;;;;;;;;;;4991625;28;20515;-92
2022/08/18 06:07:21;;;;;;;72.10;45.07;;;;;;;;;;4996583;28;20440;-92
2022/08/18 06:09:47;;;;;;;69.40;47.63;;;;;;;;;;5000473;28;20424;-91
2022/08/18 06:12:16;;;;;;;72.40;46.07;;;;;;;;;;5015370;28;20465;-91
2022/08/18 06:14:42;;;;;;;77.90;50.23;;;;;;;;;;4992488;28;20419;-92
2022/08/18 06:17:08;;;;;;;75.33;50.47;;;;;;;;;;4294492;28;10000603;-89
2022/08/18 06:19:43;;;;;;;77.57;47.90;;;;;;;;;;4994608;28;20415;-91
2022/08/18 06:22:30;;;;;;;80.77;48.83;;;;;;;;;;4979095;28;20549;-92
2022/08/18 06:25:03;;;;;;;68.97;47.70;;;;;;;;;;4976498;28;20788;-91
2022/08/18 06:27:32;;;;;;;68.40;46.77;;;;;;;;;;4975508;28;20440;-92
2022/08/18 06:30:07;;;;;;;77.63;50.97;;;;;;;;;;4987288;28;20474;-92
2022/08/18 06:32:51;;;;;;;71.77;47.60;;;;;;;;;;4995780;28;20486;-92
2022/08/18 06:35:33;;;;;;;69.17;46.13;;;;;;;;;;4997556;28;20458;-92
2022/08/18 06:41:04;;;;;;;66.77;45.90;;;;;;;;;;4997063;28;20676;-91
2022/08/18 06:43:31;;;;;;;73.37;46.20;;;;;;;;;;4993839;28;20450;-91
2022/08/18 06:45:57;;;;;;;75.53;49.20;;;;;;;;;;4977124;28;20432;-90
2022/08/18 06:48:23;;;;;;;69.30;46.27;;;;;;;;;;5012219;28;20447;-88
2022/08/18 06:50:59;;;;;;;64.80;45.70;;;;;;;;;;4986209;28;20702;-89
2022/08/18 06:53:44;;;;;;;62.20;43.17;;;;;;;;;;5002535;28;21018;-90
2022/08/18 06:56:20;;;;;;;57.43;41.70;;;;;;;;;;4996097;28;20431;-90
2022/08/18 06:58:45;;;;;;;67.93;45.77;;;;;;;;;;4998845;28;20445;-93
2022/08/18 07:01:12;;;;;;;57.03;42.97;;;;;;;;;;4984827;28;20506;-92
2022/08/18 07:03:47;;;;;;;62.07;44.87;;;;;;;;;;4999745;28;20502;-89
2022/08/18 07:06:20;;;;;;;70.40;45.70;;;;;;;;;;4986097;28;20484;-91
2022/08/18 07:08:49;;;;;;;60.77;43.20;;;;;;;;;;4995322;28;20440;-92
2022/08/18 07:11:42;;;;;;;68.43;45.73;;;;;;;;;;4983295;28;20504;-91
2022/08/18 07:14:14;;;;;;;64.43;44.90;;;;;;;;;;4998387;28;20435;-89
2022/08/18 07:16:40;;;;;;;64.33;46.17;;;;;;;;;;4984523;28;20436;-91
2022/08/18 07:19:19;;;;;;;66.00;45.57;;;;;;;;;;4995199;28;20442;-93
2022/08/18 07:22:00;;;;;;;62.97;44.17;;;;;;;;;;5009438;28;20466;-91
2022/08/18 07:24:39;;;;;;;71.67;45.83;;;;;;;;;;4992148;28;20427;-92
2022/08/18 07:27:07;;;;;;;66.50;46.50;;;;;;;;;;4981921;28;20515;-91
2022/08/18 07:29:35;;;;;;;66.10;43.70;;;;;;;;;;4997409;28;20510;-92
2022/08/18 07:32:26;;;;;;;64.13;44.67;;;;;;;;;;4996074;28;20433;-96
2022/08/18 07:35:06;;;;;;;65.17;46.33;;;;;;;;;;5011182;28;20972;-95
2022/08/18 07:53:50;;;;;;;61.70;43.67;;;;;;;;;;5172082;23;20586;-92
2022/08/18 07:56:41;;;;;;;61.03;45.37;;;;;;;;;;4973671;28;20449;-92
2022/08/18 08:02:01;;;;;;;57.53;45.03;;;;;;;;;;4807182;23;10002264;-94
2022/08/18 08:04:49;;;;;;;60.57;42.70;;;;;;;;;;5445114;22;20207;-89
2022/08/18 08:07:53;;;;;;;52.40;39.67;;;;;;;;;;5070502;23;20476;-90
2022/08/18 08:10:48;;;;;;;55.17;42.27;;;;;;;;;;4948954;29;20439;-91
2022/08/18 08:16:09;;;;;;;55.97;44.10;;;;;;;;;;5044340;23;20567;-91
2022/08/18 08:19:01;;;;;;;70.80;52.10;;;;;;;;;;4992883;28;20443;-92
2022/08/18 08:21:32;;;;;;;52.60;41.80;;;;;;;;;;5004531;28;20483;-91
2022/08/18 08:24:20;;;;;;;58.83;42.33;;;;;;;;;;4988478;28;20527;-90
2022/08/18 08:30:19;;;;;;;49.67;41.03;;;;;;;;;;4959197;28;20510;-91
2022/08/18 08:33:07;;;;;;;50.53;39.70;;;;;;;;;;4983575;28;20455;-91
2022/08/18 08:35:51;;;;;;;47.33;39.70;;;;;;;;;;4984180;28;20440;-91
2022/08/18 08:38:22;;;;;;;49.27;39.80;;;;;;;;;;4988452;28;20432;-92
2022/08/18 08:44:15;;;;;;;48.73;39.97;;;;;;;;;;5018449;28;20438;-92
2022/08/18 08:46:54;;;;;;;46.37;38.37;;;;;;;;;;4985998;28;20436;-89
2022/08/18 08:49:21;;;;;;;51.20;37.50;;;;;;;;;;4998868;28;21039;-89
2022/08/18 08:51:56;;;;;;;46.93;37.10;;;;;;;;;;5000502;28;20433;-92
2022/08/18 08:54:49;;;;;;;44.23;39.27;;;;;;;;;;4976928;28;20741;-90
2022/08/18 08:57:15;;;;;;;44.60;37.40;;;;;;;;;;4979081;28;20483;-91
2022/08/18 09:00:01;;;;;;;47.47;40.23;;;;;;;;;;5005963;28;20436;-89
2022/08/18 09:02:42;;;;;;;43.90;39.20;;;;;;;;;;5010794;28;20484;-91
2022/08/18 09:05:20;;;;;;;44.00;38.70;;;;;;;;;;5018254;28;20503;-93
2022/08/18 09:08:15;;;;;;;43.53;36.67;;;;;;;;;;4982477;28;20977;-91
2022/08/18 09:11:00;;;;;;;45.13;37.90;;;;;;;;;;4967212;28;20429;-91
2022/08/18 09:13:51;;;;;;;48.97;37.80;;;;;;;;;;4987760;28;20436;-93
2022/08/18 09:16:28;;;;;;;42.20;34.90;;;;;;;;;;4955248;28;20442;-92
2022/08/18 09:22:12;;;;;;;47.27;36.47;;;;;;;;;;5252402;23;20515;-90
2022/08/18 09:24:46;;;;;;;44.80;38.10;;;;;;;;;;4946417;29;20445;-90
2022/08/18 09:27:15;;;;;;;42.23;36.03;;;;;;;;;;4977888;28;20449;-91
2022/08/18 09:30:11;;;;;;;42.73;35.93;;;;;;;;;;4972550;28;20591;-90
2022/08/18 09:32:55;;;;;;;43.20;38.60;;;;;;;;;;4970193;28;20460;-91
2022/08/18 09:35:40;;;;;;;45.20;38.90;;;;;;;;;;4981173;28;20924;-89
2022/08/18 09:43:31;;;;;;;42.57;37.97;;;;;;;;;;5168029;23;20488;-87
2022/08/18 09:46:03;;;;;;;40.93;35.83;;;;;;;;;;4979318;28;21000;-90
2022/08/18 09:48:53;;;;;;;41.93;36.40;;;;;;;;;;4990524;28;20440;-89
2022/08/18 09:51:23;;;;;;;41.23;36.93;;;;;;;;;;4981598;28;20466;-88
2022/08/18 09:53:51;;;;;;;41.40;34.10;;;;;;;;;;4987769;28;20451;-87
2022/08/18 09:56:37;;;;;;;39.53;35.53;;;;;;;;;;4960035;28;20544;-88
2022/08/18 09:59:04;;;;;;;40.33;36.10;;;;;;;;;;4977068;28;20428;-90
2022/08/18 10:01:30;;;;;;;37.90;34.20;;;;;;;;;;4972457;28;20618;-90
2022/08/18 10:04:15;;;;;;;40.00;36.13;;;;;;;;;;4974603;28;20511;-90
2022/08/18 10:06:43;;;;;;;37.37;33.57;;;;;;;;;;4632896;28;10000704;-89
2022/08/18 10:09:15;;;;;;;38.60;34.73;;;;;;;;;;4971723;28;20700;-90
2022/08/18 10:11:45;;;;;;;37.73;34.03;;;;;;;;;;4969419;28;20508;-90
2022/08/18 10:14:35;;;;;;;38.00;34.20;;;;;;;;;;4969807;28;20448;-88
2022/08/18 10:17:10;;;;;;;33.67;30.43;;;;;;;;;;4977733;28;20425;-90
2022/08/18 10:19:36;;;;;;;37.87;34.00;;;;;;;;;;4970958;28;20531;-89
2022/08/18 10:22:05;;;;;;;34.93;31.10;;;;;;;;;;4966281;28;20539;-89
2022/08/18 10:24:31;;;;;;;39.63;35.93;;;;;;;;;;4979720;28;20934;-89
2022/08/18 10:26:58;;;;;;;36.90;33.30;;;;;;;;;;4970459;28;20475;-90
2022/08/18 10:29:24;;;;;;;34.07;30.97;;;;;;;;;;4980668;28;20820;-90
2022/08/18 10:32:07;;;;;;;33.00;29.93;;;;;;;;;;4970882;28;21167;-89
2022/08/18 10:34:39;;;;;;;34.90;31.50;;;;;;;;;;4981061;28;20439;-88
2022/08/18 10:37:18;;;;;;;34.30;30.80;;;;;;;;;;4974131;28;20439;-88
2022/08/18 10:39:56;;;;;;;33.30;30.00;;;;;;;;;;4973661;28;20453;-90
2022/08/18 10:42:25;;;;;;;35.00;31.50;;;;;;;;;;4967128;28;21055;-88
2022/08/18 10:44:55;;;;;;;35.60;31.73;;;;;;;;;;4969555;28;20441;-89
2022/08/18 10:47:23;;;;;;;36.07;32.60;;;;;;;;;;4983002;28;20480;-90
2022/08/18 10:49:49;;;;;;;34.70;31.40;;;;;;;;;;4987559;28;20953;-89
2022/08/18 10:52:19;;;;;;;32.60;29.60;;;;;;;;;;4976470;28;20454;-89
2022/08/18 10:55:03;;;;;;;32.70;29.40;;;;;;;;;;4967819;28;20449;-88
2022/08/18 10:57:36;;;;;;;31.93;29.03;;;;;;;;;;4985155;28;20460;-89
2022/08/18 11:00:10;;;;;;;32.53;29.40;;;;;;;;;;4962402;28;20599;-90
2022/08/18 11:02:36;;;;;;;31.93;29.10;;;;;;;;;;4975837;28;20626;-90
2022/08/18 11:05:08;;;;;;;31.73;28.90;;;;;;;;;;4982076;28;20424;-87
2022/08/18 11:07:41;;;;;;;36.10;32.80;;;;;;;;;;4989071;28;20467;-91
2022/08/18 11:10:17;;;;;;;32.33;29.10;;;;;;;;;;4981266;28;20491;-92
2022/08/18 11:13:03;;;;;;;33.83;30.73;;;;;;;;;;4987833;28;20472;-89
2022/08/18 11:15:32;;;;;;;34.13;30.63;;;;;;;;;;4984604;28;20491;-90
2022/08/18 11:18:03;;;;;;;35.15;32.15;;;;;;;;;;4980384;28;20408;-89
2022/08/18 11:20:33;;;;;;;35.77;32.47;;;;;;;;;;4974449;28;20252;-91
2022/08/18 11:23:01;;;;;;;36.80;33.70;;;;;;;;;;4978746;28;20416;-91
2022/08/18 11:25:40;;;;;;;36.60;33.50;;;;;;;;;;4988617;28;20451;-91
2022/08/18 11:28:25;;;;;;;35.60;32.50;;;;;;;;;;4964835;28;20715;-91
2022/08/18 11:30:53;;;;;;;36.65;33.40;;;;;;;;;;4994361;28;20387;-89
2022/08/18 11:33:20;;;;;;;37.17;33.88;;;;;;;;;;4975398;28;20392;-89
2022/08/18 11:35:58;;;;;;;36.83;33.60;;;;;;;;;;4997010;28;20185;-90
2022/08/18 11:38:25;;;;;;;36.63;33.20;;;;;;;;;;4987356;28;20458;-90
2022/08/18 11:40:55;;;;;;;37.37;33.47;;;;;;;;;;4988859;28;20472;-92
2022/08/18 11:43:26;;;;;;;37.30;33.73;;;;;;;;;;5006431;28;20465;-91
2022/08/18 11:46:00;;;;;;;39.73;35.60;;;;;;;;;;4978289;28;20408;-90
2022/08/18 11:48:33;;;;;;;36.17;32.47;;;;;;;;;;4978808;28;20463;-89
2022/08/18 11:51:10;;;;;;;35.30;31.97;;;;;;;;;;4969101;28;20421;-88
2022/08/18 11:53:58;;;;;;;34.67;31.30;;;;;;;;;;4983758;28;20455;-92
2022/08/18 11:56:26;;;;;;;36.30;33.30;;;;;;;;;;4988937;28;20412;-89
2022/08/18 11:58:59;;;;;;;33.73;30.67;;;;;;;;;;4979732;28;20431;-90
2022/08/18 12:01:44;;;;;;;35.40;32.27;;;;;;;;;;4970857;28;20452;-90
2022/08/18 12:04:21;;;;;;;32.30;29.60;;;;;;;;;;4993618;28;20504;-92
2022/08/18 12:06:50;;;;;;;64.00;57.67;;;;;;;;;;4986637;28;20446;-92
2022/08/18 12:09:17;;;;;;;30.57;27.77;;;;;;;;;;4997983;28;20439;-89
2022/08/18 12:11:51;;;;;;;28.30;25.50;;;;;;;;;;4990169;28;20362;-89
2022/08/18 12:14:22;;;;;;;27.07;24.77;;;;;;;;;;4986986;28;20494;-89
2022/08/18 12:16:58;;;;;;;26.10;23.77;;;;;;;;;;4987966;28;20428;-91
2022/08/18 12:19:33;;;;;;;22.77;20.73;;;;;;;;;;4986901;28;20652;-92
2022/08/18 12:22:00;;;;;;;23.90;20.70;;;;;;;;;;4965834;28;20476;-91
2022/08/18 12:24:31;;;;;;;22.00;19.97;;;;;;;;;;4990055;28;20471;-90
2022/08/18 12:27:11;;;;;;;18.73;17.03;;;;;;;;;;4975222;28;20510;-91
2022/08/18 12:29:39;;;;;;;16.10;15.10;;;;;;;;;;4992061;28;20415;-93
2022/08/18 12:32:08;;;;;;;15.73;14.63;;;;;;;;;;4978573;28;20444;-92
2022/08/18 12:34:35;;;;;;;16.00;14.70;;;;;;;;;;4997184;28;20513;-90
2022/08/18 12:37:02;;;;;;;15.87;14.67;;;;;;;;;;4976954;28;20449;-90
2022/08/18 12:39:30;;;;;;;18.80;17.27;;;;;;;;;;4970964;28;20444;-87
2022/08/18 12:41:57;;;;;;;18.57;17.07;;;;;;;;;;4974229;28;20479;-89
2022/08/18 12:44:29;;;;;;;19.43;17.83;;;;;;;;;;4993872;28;20420;-88
2022/08/18 12:46:56;;;;;;;19.40;17.50;;;;;;;;;;4988791;28;20431;-87
2022/08/18 12:49:23;;;;;;;19.73;18.20;;;;;;;;;;4969313;28;20460;-89
2022/08/18 12:51:49;;;;;;;20.07;18.30;;;;;;;;;;4989544;28;20432;-90
2022/08/18 12:54:16;;;;;;;19.50;17.70;;;;;;;;;;4992567;28;20450;-90
2022/08/18 12:56:42;;;;;;;21.80;20.00;;;;;;;;;;4979488;28;20443;-90
2022/08/18 12:59:09;;;;;;;18.53;17.43;;;;;;;;;;4964633;28;20477;-89
2022/08/18 13:01:39;;;;;;;23.87;20.03;;;;;;;;;;4976207;28;20547;-88
2022/08/18 13:04:05;;;;;;;20.20;18.07;;;;;;;;;;4964084;28;21009;-91
2022/08/18 13:06:36;;;;;;;19.63;17.93;;;;;;;;;;4976533;28;20440;-89
2022/08/18 13:09:04;;;;;;;16.50;15.40;;;;;;;;;;5001318;28;20424;-90
2022/08/18 13:11:31;;;;;;;17.90;16.17;;;;;;;;;;4985882;28;20491;-89
2022/08/18 13:13:58;;;;;;;16.87;15.70;;;;;;;;;;4991085;28;20430;-89
2022/08/18 13:16:25;;;;;;;14.93;13.93;;;;;;;;;;5001066;28;20437;-89
2022/08/18 13:18:51;;;;;;;15.30;14.30;;;;;;;;;;4973396;28;20501;-88
2022/08/18 13:21:20;;;;;;;;;;;;;;;;;;4989035;28;20290;-92
2022/08/18 13:23:51;;;;;;;15.00;14.20;;;;;;;;;;4996807;28;20413;-90
2022/08/18 13:26:24;;;;;;;17.00;15.90;;;;;;;;;;4984626;28;20374;-90
2022/08/18 13:29:00;;;;;;;15.30;14.30;;;;;;;;;;5006227;28;20721;-91
2022/08/18 13:31:35;;;;;;;16.50;15.40;;;;;;;;;;4993443;28;20411;-92
2022/08/18 13:34:08;;;;;;;16.23;15.13;;;;;;;;;;4973838;28;20414;-91
2022/08/18 13:36:45;;;;;;;16.48;15.38;;;;;;;;;;4993717;28;20410;-89
2022/08/18 13:39:27;;;;;;;16.58;15.50;;;;;;;;;;4997483;28;20410;-91
2022/08/18 13:42:03;;;;;;;17.20;16.20;;;;;;;;;;4977720;28;20454;-91
2022/08/18 13:47:21;;;;;;;15.68;14.68;;;;;;;;;;5202838;23;20434;-91
2022/08/18 13:49:55;;;;;;;14.10;13.40;;;;;;;;;;4984926;28;20411;-93
2022/08/18 13:52:21;;;;;;;14.00;13.30;;;;;;;;;;4952533;29;20402;-91
2022/08/18 13:54:50;;;;;;;12.47;11.83;;;;;;;;;;4943889;29;20200;-93
2022/08/18 13:57:30;;;;;;;12.77;11.90;;;;;;;;;;4970852;29;20406;-90
2022/08/18 14:00:05;;;;;;;14.83;13.67;;;;;;;;;;4955311;28;20416;-91
2022/08/18 14:02:31;;;;;;;12.88;12.10;;;;;;;;;;4977575;28;20433;-90
2022/08/18 14:04:57;;;;;;;11.05;10.55;;;;;;;;;;5158861;23;20429;-89
2022/08/18 14:07:23;;;;;;;;;;;;;;;;;;5013803;28;20097;-91
2022/08/18 14:09:49;;;;;;;;;;;;;;;;;;5016163;28;19913;-88
2022/08/18 14:12:16;;;;;;;;;;;;;;;;;;5016977;28;19921;-89
2022/08/18 14:14:43;;;;;;;;;;;;;;;;;;5008700;28;19961;-90
2022/08/18 14:17:09;;;;;;;;;;;;;;;;;;5020117;28;19905;-89
2022/08/18 14:27:50;;;;;;;14.45;13.65;;;;;;;;;;5001701;28;20546;-88
2022/08/18 14:30:23;;;;;;;13.93;13.05;;;;;;;;;;5004406;28;20405;-89
2022/08/18 14:32:49;;;;;;;13.88;12.98;;;;;;;;;;4985165;28;20473;-89
2022/08/18 14:35:25;;;;;;;13.85;13.13;;;;;;;;;;5008774;28;20448;-87
2022/08/18 14:37:52;;;;;;;13.50;12.70;;;;;;;;;;5002373;28;20488;-87
2022/08/18 14:40:29;;;;;;;14.05;13.05;;;;;;;;;;5017882;28;20407;-87
2022/08/18 14:42:55;;;;;;;13.30;12.60;;;;;;;;;;4981211;28;20415;-86
2022/08/18 14:45:27;;;;;;;13.77;13.18;;;;;;;;;;5015771;28;20469;-87
2022/08/18 14:47:58;;;;;;;12.35;11.80;;;;;;;;;;5004512;28;20480;-88
2022/08/18 14:50:24;;;;;;;13.13;12.23;;;;;;;;;;4985912;28;20455;-84
2022/08/18 14:52:50;;;;;;;13.95;13.15;;;;;;;;;;4995441;28;20405;-84
2022/08/18 14:55:18;;;;;;;14.10;13.15;;;;;;;;;;4989717;28;20432;-88
2022/08/18 14:57:44;;;;;;;14.20;13.40;;;;;;;;;;4984837;28;20416;-86
2022/08/18 15:00:14;;;;;;;16.45;14.75;;;;;;;;;;4985034;28;20409;-86
2022/08/18 15:02:41;;;;;;;13.73;12.98;;;;;;;;;;4999994;28;20408;-85
2022/08/18 15:05:08;;;;;;;13.80;13.00;;;;;;;;;;4976647;28;20423;-87
2022/08/18 15:07:38;;;;;;;14.30;13.20;;;;;;;;;;4999348;28;20396;-84
2022/08/18 15:10:05;;;;;;;14.90;13.80;;;;;;;;;;4997272;28;20401;-85
2022/08/18 15:12:35;;;;;;;14.18;13.35;;;;;;;;;;4999867;28;20432;-86
2022/08/18 15:15:11;;;;;;;13.32;12.52;;;;;;;;;;5023187;28;20397;-87
2022/08/18 15:26:25;;;;;;;14.90;13.80;;;;;;;;;;4989759;28;20462;-88
2022/08/18 15:28:56;;;;;;;13.13;12.32;;;;;;;;;;4990419;28;20453;-87
2022/08/18 15:31:25;;;;;;;11.00;10.50;;;;;;;;;;4991348;28;20385;-87
2022/08/18 15:34:13;;;;;;;13.10;12.30;;;;;;;;;;4986328;28;20453;-89
2022/08/18 15:37:03;;;;;;;12.52;11.82;;;;;;;;;;4639219;28;10000697;-89
2022/08/18 15:39:32;;;;;;;12.50;11.80;;;;;;;;;;4994434;28;20411;-90
2022/08/18 15:42:14;;;;;;;13.50;12.70;;;;;;;;;;4986654;28;20790;-89
2022/08/18 15:44:58;;;;;;;11.95;11.15;;;;;;;;;;4995225;28;20413;-86
2022/08/18 15:47:31;;;;;;;12.05;11.45;;;;;;;;;;4989942;28;20401;-85
2022/08/18 15:50:17;;;;;;;12.03;11.33;;;;;;;;;;5006734;28;20420;-88
2022/08/18 15:53:10;;;;;;;12.40;11.60;;;;;;;;;;4999405;28;20468;-88
2022/08/18 15:55:38;;;;;;;11.82;11.27;;;;;;;;;;5016140;28;20401;-90
2022/08/18 15:58:05;;;;;;;11.00;10.40;;;;;;;;;;5004891;28;20408;-90